sensor_id;sensor_type;location;lat;lon;timestamp;pressure;altitude;pressure_sealevel;temperature;humidity
62632;BME280;48703;51.248;-0.546;2023-01-24T00:01:36;103212;;;0.95;95.31
62632;BME280;48703;51.248;-0.546;2023-01-24T00:04:38;103215;;;0.97;95.24
62632;BME280;48703;51.248;-0.546;2023-01-24T00:07:40;103214;;;0.96;95.34
62632;BME280;48703;51.248;-0.546;2023-01-24T00:10:42;103212;;;0.96;95.51
62632;BME280;48703;51.248;-0.546;2023-01-24T00:13:43;103216;;;0.96;95.23
62632;BME280;48703;51.248;-0.546;2023-01-24T00:16:45;103213;;;0.95;95.30
62632;BME280;48703;51.248;-0.546;2023-01-24T00:19:47;103212;;;0.94;95.25
62632;BME280;48703;51.248;-0.546;2023-01-24T00:22:49;103213;;;0.94;95.34
62632;BME280;48703;51.248;-0.546;2023-01-24T00:25:51;103213;;;0.95;95.30
62632;BME280;48703;51.248;-0.546;2023-01-24T00:28:53;103213;;;0.95;95.42
62632;BME280;48703;51.248;-0.546;2023-01-24T00:31:55;103215;;;0.96;95.30
62632;BME280;48703;51.248;-0.546;2023-01-24T00:34:57;103216;;;0.96;95.20
62632;BME280;48703;51.248;-0.546;2023-01-24T00:37:58;103215;;;0.96;95.47
62632;BME280;48703;51.248;-0.546;2023-01-24T00:41:00;103213;;;0.95;95.48
62632;BME280;48703;51.248;-0.546;2023-01-24T00:44:02;103214;;;0.96;95.26
62632;BME280;48703;51.248;-0.546;2023-01-24T00:47:04;103216;;;0.97;95.19
62632;BME280;48703;51.248;-0.546;2023-01-24T00:50:06;103212;;;0.97;95.55
62632;BME280;48703;51.248;-0.546;2023-01-24T00:53:08;103215;;;0.97;95.43
62632;BME280;48703;51.248;-0.546;2023-01-24T00:56:10;103216;;;0.95;95.39
62632;BME280;48703;51.248;-0.546;2023-01-24T00:59:12;103218;;;0.96;95.60
62632;BME280;48703;51.248;-0.546;2023-01-24T01:02:13;103214;;;0.98;95.59
62632;BME280;48703;51.248;-0.546;2023-01-24T01:05:16;103213;;;0.99;95.33
62632;BME280;48703;51.248;-0.546;2023-01-24T01:08:17;103206;;;0.99;95.42
62632;BME280;48703;51.248;-0.546;2023-01-24T01:11:19;103205;;;0.97;95.45
62632;BME280;48703;51.248;-0.546;2023-01-24T01:14:21;103206;;;0.98;95.66
62632;BME280;48703;51.248;-0.546;2023-01-24T01:17:23;103208;;;0.98;95.45
62632;BME280;48703;51.248;-0.546;2023-01-24T01:20:25;103206;;;0.99;95.74
62632;BME280;48703;51.248;-0.546;2023-01-24T01:23:27;103208;;;1.01;95.70
62632;BME280;48703;51.248;-0.546;2023-01-24T01:26:29;103210;;;0.99;95.51
62632;BME280;48703;51.248;-0.546;2023-01-24T01:29:32;103208;;;1.00;95.67
62632;BME280;48703;51.248;-0.546;2023-01-24T01:32:32;103202;;;1.00;95.46
62632;BME280;48703;51.248;-0.546;2023-01-24T01:35:34;103203;;;0.99;95.44
62632;BME280;48703;51.248;-0.546;2023-01-24T01:38:36;103201;;;1.00;95.36
62632;BME280;48703;51.248;-0.546;2023-01-24T01:41:38;103203;;;1.00;95.41
62632;BME280;48703;51.248;-0.546;2023-01-24T01:44:40;103199;;;1.00;95.41
62632;BME280;48703;51.248;-0.546;2023-01-24T01:47:42;103194;;;0.99;95.48
62632;BME280;48703;51.248;-0.546;2023-01-24T01:50:44;103192;;;1.00;95.39
62632;BME280;48703;51.248;-0.546;2023-01-24T01:53:46;103194;;;1.00;95.53
62632;BME280;48703;51.248;-0.546;2023-01-24T01:56:48;103198;;;1.01;95.53
62632;BME280;48703;51.248;-0.546;2023-01-24T01:59:50;103198;;;1.01;95.34
62632;BME280;48703;51.248;-0.546;2023-01-24T02:02:52;103199;;;1.02;95.45
62632;BME280;48703;51.248;-0.546;2023-01-24T02:05:53;103198;;;1.01;95.67
62632;BME280;48703;51.248;-0.546;2023-01-24T02:08:55;103204;;;1.01;95.60
62632;BME280;48703;51.248;-0.546;2023-01-24T02:12:03;103207;;;1.01;95.53
62632;BME280;48703;51.248;-0.546;2023-01-24T02:15:01;103211;;;1.00;95.60
62632;BME280;48703;51.248;-0.546;2023-01-24T02:18:00;103213;;;1.04;95.76
62632;BME280;48703;51.248;-0.546;2023-01-24T02:21:03;103210;;;1.04;95.50
62632;BME280;48703;51.248;-0.546;2023-01-24T02:23:14;103213;;;1.04;95.47
62632;BME280;48703;51.248;-0.546;2023-01-24T02:26:07;103213;;;1.03;95.38
62632;BME280;48703;51.248;-0.546;2023-01-24T02:29:09;103216;;;1.03;95.60
62632;BME280;48703;51.248;-0.546;2023-01-24T02:32:09;103217;;;1.03;95.48
62632;BME280;48703;51.248;-0.546;2023-01-24T02:35:21;103215;;;1.04;95.84
62632;BME280;48703;51.248;-0.546;2023-01-24T02:38:15;103217;;;1.05;95.92
62632;BME280;48703;51.248;-0.546;2023-01-24T02:41:15;103220;;;1.09;95.76
62632;BME280;48703;51.248;-0.546;2023-01-24T02:44:18;103220;;;1.08;95.42
62632;BME280;48703;51.248;-0.546;2023-01-24T02:47:18;103220;;;1.10;95.73
62632;BME280;48703;51.248;-0.546;2023-01-24T02:50:22;103221;;;1.09;95.50
62632;BME280;48703;51.248;-0.546;2023-01-24T02:53:22;103221;;;1.09;95.39
62632;BME280;48703;51.248;-0.546;2023-01-24T02:56:24;103220;;;1.09;95.51
62632;BME280;48703;51.248;-0.546;2023-01-24T02:59:26;103220;;;1.10;95.63
62632;BME280;48703;51.248;-0.546;2023-01-24T03:02:28;103218;;;1.10;95.48
62632;BME280;48703;51.248;-0.546;2023-01-24T03:05:30;103218;;;1.10;95.49
62632;BME280;48703;51.248;-0.546;2023-01-24T03:08:32;103217;;;1.10;95.76
62632;BME280;48703;51.248;-0.546;2023-01-24T03:11:34;103218;;;1.09;95.57
62632;BME280;48703;51.248;-0.546;2023-01-24T03:14:35;103222;;;1.10;95.65
62632;BME280;48703;51.248;-0.546;2023-01-24T03:17:37;103216;;;1.09;95.58
62632;BME280;48703;51.248;-0.546;2023-01-24T03:20:39;103215;;;1.09;95.52
62632;BME280;48703;51.248;-0.546;2023-01-24T03:23:41;103217;;;1.10;95.53
62632;BME280;48703;51.248;-0.546;2023-01-24T03:26:43;103216;;;1.10;95.45
62632;BME280;48703;51.248;-0.546;2023-01-24T03:29:45;103215;;;1.10;95.46
62632;BME280;48703;51.248;-0.546;2023-01-24T03:32:47;103209;;;1.11;95.56
62632;BME280;48703;51.248;-0.546;2023-01-24T03:35:49;103208;;;1.12;95.60
62632;BME280;48703;51.248;-0.546;2023-01-24T03:38:50;103206;;;1.15;95.79
62632;BME280;48703;51.248;-0.546;2023-01-24T03:41:52;103207;;;1.16;95.48
62632;BME280;48703;51.248;-0.546;2023-01-24T03:44:54;103207;;;1.15;95.38
62632;BME280;48703;51.248;-0.546;2023-01-24T03:47:57;103204;;;1.16;95.30
62632;BME280;48703;51.248;-0.546;2023-01-24T03:50:58;103205;;;1.15;95.57
62632;BME280;48703;51.248;-0.546;2023-01-24T03:54:00;103203;;;1.15;95.43
62632;BME280;48703;51.248;-0.546;2023-01-24T03:57:02;103205;;;1.15;95.61
62632;BME280;48703;51.248;-0.546;2023-01-24T04:00:04;103203;;;1.17;95.44
62632;BME280;48703;51.248;-0.546;2023-01-24T04:03:05;103200;;;1.17;95.33
62632;BME280;48703;51.248;-0.546;2023-01-24T04:06:07;103200;;;1.20;95.71
62632;BME280;48703;51.248;-0.546;2023-01-24T04:09:09;103204;;;1.23;95.53
62632;BME280;48703;51.248;-0.546;2023-01-24T04:12:11;103209;;;1.22;95.25
62632;BME280;48703;51.248;-0.546;2023-01-24T04:15:14;103209;;;1.21;95.33
62632;BME280;48703;51.248;-0.546;2023-01-24T04:18:15;103207;;;1.20;95.48
62632;BME280;48703;51.248;-0.546;2023-01-24T04:21:17;103207;;;1.20;95.46
62632;BME280;48703;51.248;-0.546;2023-01-24T04:24:19;103207;;;1.20;95.52
62632;BME280;48703;51.248;-0.546;2023-01-24T04:27:20;103207;;;1.19;95.47
62632;BME280;48703;51.248;-0.546;2023-01-24T04:30:22;103200;;;1.21;95.95
62632;BME280;48703;51.248;-0.546;2023-01-24T04:33:24;103202;;;1.24;95.66
62632;BME280;48703;51.248;-0.546;2023-01-24T04:36:26;103199;;;1.23;95.30
62632;BME280;48703;51.248;-0.546;2023-01-24T04:39:28;103202;;;1.23;95.63
62632;BME280;48703;51.248;-0.546;2023-01-24T04:42:30;103203;;;1.24;95.57
62632;BME280;48703;51.248;-0.546;2023-01-24T04:45:32;103205;;;1.24;95.23
62632;BME280;48703;51.248;-0.546;2023-01-24T04:48:34;103203;;;1.22;95.33
62632;BME280;48703;51.248;-0.546;2023-01-24T04:51:35;103203;;;1.23;95.32
62632;BME280;48703;51.248;-0.546;2023-01-24T04:54:37;103206;;;1.23;95.41
62632;BME280;48703;51.248;-0.546;2023-01-24T04:57:39;103206;;;1.22;95.55
62632;BME280;48703;51.248;-0.546;2023-01-24T05:00:41;103203;;;1.22;95.70
62632;BME280;48703;51.248;-0.546;2023-01-24T05:03:43;103207;;;1.22;95.59
62632;BME280;48703;51.248;-0.546;2023-01-24T05:06:45;103205;;;1.24;95.91
62632;BME280;48703;51.248;-0.546;2023-01-24T05:09:47;103206;;;1.27;95.86
62632;BME280;48703;51.248;-0.546;2023-01-24T05:12:49;103206;;;1.27;95.57
62632;BME280;48703;51.248;-0.546;2023-01-24T05:15:50;103200;;;1.27;95.47
62632;BME280;48703;51.248;-0.546;2023-01-24T05:18:52;103195;;;1.27;95.54
62632;BME280;48703;51.248;-0.546;2023-01-24T05:21:54;103194;;;1.27;95.38
62632;BME280;48703;51.248;-0.546;2023-01-24T05:24:56;103193;;;1.27;95.52
62632;BME280;48703;51.248;-0.546;2023-01-24T05:27:58;103192;;;1.27;95.69
62632;BME280;48703;51.248;-0.546;2023-01-24T05:31:00;103190;;;1.27;95.80
62632;BME280;48703;51.248;-0.546;2023-01-24T05:34:02;103192;;;1.29;95.58
62632;BME280;48703;51.248;-0.546;2023-01-24T05:37:04;103194;;;1.30;95.66
62632;BME280;48703;51.248;-0.546;2023-01-24T05:40:06;103191;;;1.29;95.61
62632;BME280;48703;51.248;-0.546;2023-01-24T05:43:07;103193;;;1.28;95.66
62632;BME280;48703;51.248;-0.546;2023-01-24T05:46:10;103191;;;1.31;96.11
62632;BME280;48703;51.248;-0.546;2023-01-24T05:49:11;103193;;;1.34;96.05
62632;BME280;48703;51.248;-0.546;2023-01-24T05:52:13;103195;;;1.35;95.78
62632;BME280;48703;51.248;-0.546;2023-01-24T05:55:15;103198;;;1.35;95.78
62632;BME280;48703;51.248;-0.546;2023-01-24T05:58:17;103202;;;1.35;95.60
62632;BME280;48703;51.248;-0.546;2023-01-24T06:01:19;103203;;;1.34;95.69
62632;BME280;48703;51.248;-0.546;2023-01-24T06:04:21;103207;;;1.35;95.88
62632;BME280;48703;51.248;-0.546;2023-01-24T06:07:22;103206;;;1.35;95.76
62632;BME280;48703;51.248;-0.546;2023-01-24T06:10:24;103202;;;1.35;95.76
62632;BME280;48703;51.248;-0.546;2023-01-24T06:13:26;103200;;;1.36;95.86
62632;BME280;48703;51.248;-0.546;2023-01-24T06:16:28;103199;;;1.36;96.01
62632;BME280;48703;51.248;-0.546;2023-01-24T06:19:30;103202;;;1.37;95.72
62632;BME280;48703;51.248;-0.546;2023-01-24T06:22:34;103206;;;1.38;95.94
62632;BME280;48703;51.248;-0.546;2023-01-24T06:25:34;103209;;;1.38;95.71
62632;BME280;48703;51.248;-0.546;2023-01-24T06:28:36;103208;;;1.38;95.97
62632;BME280;48703;51.248;-0.546;2023-01-24T06:31:38;103204;;;1.38;95.97
62632;BME280;48703;51.248;-0.546;2023-01-24T06:34:53;103199;;;1.40;95.95
62632;BME280;48703;51.248;-0.546;2023-01-24T06:37:44;103196;;;1.41;95.98
62632;BME280;48703;51.248;-0.546;2023-01-24T06:40:43;103195;;;1.42;95.93
62632;BME280;48703;51.248;-0.546;2023-01-24T06:43:45;103194;;;1.43;96.02
62632;BME280;48703;51.248;-0.546;2023-01-24T06:46:47;103194;;;1.44;95.98
62632;BME280;48703;51.248;-0.546;2023-01-24T06:49:49;103190;;;1.44;96.00
62632;BME280;48703;51.248;-0.546;2023-01-24T06:52:50;103196;;;1.45;95.98
62632;BME280;48703;51.248;-0.546;2023-01-24T06:55:52;103201;;;1.46;96.14
62632;BME280;48703;51.248;-0.546;2023-01-24T06:58:54;103202;;;1.47;96.08
62632;BME280;48703;51.248;-0.546;2023-01-24T07:01:56;103207;;;1.48;96.01
62632;BME280;48703;51.248;-0.546;2023-01-24T07:04:58;103208;;;1.48;96.21
62632;BME280;48703;51.248;-0.546;2023-01-24T07:08:00;103207;;;1.49;96.31
62632;BME280;48703;51.248;-0.546;2023-01-24T07:11:02;103207;;;1.49;96.22
62632;BME280;48703;51.248;-0.546;2023-01-24T07:14:04;103212;;;1.51;96.07
62632;BME280;48703;51.248;-0.546;2023-01-24T07:17:06;103210;;;1.51;96.02
62632;BME280;48703;51.248;-0.546;2023-01-24T07:20:08;103216;;;1.53;96.13
62632;BME280;48703;51.248;-0.546;2023-01-24T07:23:16;103220;;;1.54;95.90
62632;BME280;48703;51.248;-0.546;2023-01-24T07:26:11;103225;;;1.55;96.12
62632;BME280;48703;51.248;-0.546;2023-01-24T07:29:13;103232;;;1.56;96.03
62632;BME280;48703;51.248;-0.546;2023-01-24T07:32:15;103230;;;1.56;96.07
62632;BME280;48703;51.248;-0.546;2023-01-24T07:35:17;103234;;;1.57;96.11
62632;BME280;48703;51.248;-0.546;2023-01-24T07:38:19;103240;;;1.59;96.05
62632;BME280;48703;51.248;-0.546;2023-01-24T07:41:20;103245;;;1.59;95.99
62632;BME280;48703;51.248;-0.546;2023-01-24T07:44:22;103247;;;1.60;96.08
62632;BME280;48703;51.248;-0.546;2023-01-24T07:47:24;103252;;;1.62;95.88
62632;BME280;48703;51.248;-0.546;2023-01-24T07:50:26;103255;;;1.62;95.96
62632;BME280;48703;51.248;-0.546;2023-01-24T07:53:28;103255;;;1.63;95.97
62632;BME280;48703;51.248;-0.546;2023-01-24T07:56:30;103256;;;1.62;96.05
62632;BME280;48703;51.248;-0.546;2023-01-24T07:59:32;103265;;;1.64;96.02
62632;BME280;48703;51.248;-0.546;2023-01-24T08:02:34;103272;;;1.66;95.84
62632;BME280;48703;51.248;-0.546;2023-01-24T08:05:36;103279;;;1.68;95.87
62632;BME280;48703;51.248;-0.546;2023-01-24T08:08:37;103283;;;1.68;95.86
62632;BME280;48703;51.248;-0.546;2023-01-24T08:11:39;103288;;;1.70;95.90
62632;BME280;48703;51.248;-0.546;2023-01-24T08:14:41;103289;;;1.72;95.95
62632;BME280;48703;51.248;-0.546;2023-01-24T08:17:43;103291;;;1.73;95.78
62632;BME280;48703;51.248;-0.546;2023-01-24T08:20:45;103297;;;1.74;95.75
62632;BME280;48703;51.248;-0.546;2023-01-24T08:23:47;103302;;;1.75;95.73
62632;BME280;48703;51.248;-0.546;2023-01-24T08:26:49;103301;;;1.76;95.69
62632;BME280;48703;51.248;-0.546;2023-01-24T08:29:51;103302;;;1.79;95.52
62632;BME280;48703;51.248;-0.546;2023-01-24T08:32:58;103307;;;1.81;95.40
62632;BME280;48703;51.248;-0.546;2023-01-24T08:35:54;103309;;;1.83;95.33
62632;BME280;48703;51.248;-0.546;2023-01-24T08:38:56;103305;;;1.86;94.90
62632;BME280;48703;51.248;-0.546;2023-01-24T08:41:58;103306;;;1.88;94.95
62632;BME280;48703;51.248;-0.546;2023-01-24T08:45:00;103311;;;1.90;94.68
62632;BME280;48703;51.248;-0.546;2023-01-24T08:48:02;103313;;;1.92;94.50
62632;BME280;48703;51.248;-0.546;2023-01-24T08:51:04;103311;;;1.94;94.40
62632;BME280;48703;51.248;-0.546;2023-01-24T08:54:06;103315;;;1.96;94.28
62632;BME280;48703;51.248;-0.546;2023-01-24T08:57:08;103314;;;1.98;94.32
62632;BME280;48703;51.248;-0.546;2023-01-24T09:00:10;103314;;;2.00;94.28
62632;BME280;48703;51.248;-0.546;2023-01-24T09:03:11;103316;;;2.00;94.20
62632;BME280;48703;51.248;-0.546;2023-01-24T09:06:13;103317;;;2.01;94.33
62632;BME280;48703;51.248;-0.546;2023-01-24T09:09:15;103319;;;2.04;94.11
62632;BME280;48703;51.248;-0.546;2023-01-24T09:12:17;103321;;;2.04;94.05
62632;BME280;48703;51.248;-0.546;2023-01-24T09:15:19;103326;;;2.05;94.07
62632;BME280;48703;51.248;-0.546;2023-01-24T09:18:21;103329;;;2.06;93.97
62632;BME280;48703;51.248;-0.546;2023-01-24T09:21:22;103331;;;2.09;93.85
62632;BME280;48703;51.248;-0.546;2023-01-24T09:24:24;103332;;;2.12;93.55
62632;BME280;48703;51.248;-0.546;2023-01-24T09:27:26;103329;;;2.13;93.60
62632;BME280;48703;51.248;-0.546;2023-01-24T09:30:28;103332;;;2.15;93.68
62632;BME280;48703;51.248;-0.546;2023-01-24T09:33:30;103333;;;2.16;93.82
62632;BME280;48703;51.248;-0.546;2023-01-24T09:36:32;103333;;;2.17;93.59
62632;BME280;48703;51.248;-0.546;2023-01-24T09:39:34;103329;;;2.18;93.43
62632;BME280;48703;51.248;-0.546;2023-01-24T09:42:37;103327;;;2.19;93.21
62632;BME280;48703;51.248;-0.546;2023-01-24T09:45:40;103327;;;2.21;93.28
62632;BME280;48703;51.248;-0.546;2023-01-24T09:48:39;103324;;;2.22;93.16
62632;BME280;48703;51.248;-0.546;2023-01-24T09:51:42;103321;;;2.23;93.12
62632;BME280;48703;51.248;-0.546;2023-01-24T09:54:43;103325;;;2.25;93.14
62632;BME280;48703;51.248;-0.546;2023-01-24T09:57:48;103321;;;2.26;93.18
62632;BME280;48703;51.248;-0.546;2023-01-24T10:00:47;103321;;;2.28;93.21
62632;BME280;48703;51.248;-0.546;2023-01-24T10:03:49;103320;;;2.30;92.79
62632;BME280;48703;51.248;-0.546;2023-01-24T10:07:18;103323;;;2.30;92.79
62632;BME280;48703;51.248;-0.546;2023-01-24T10:09:57;103320;;;2.31;92.52
62632;BME280;48703;51.248;-0.546;2023-01-24T10:12:57;103319;;;2.33;92.44
62632;BME280;48703;51.248;-0.546;2023-01-24T10:15:59;103321;;;2.34;92.26
62632;BME280;48703;51.248;-0.546;2023-01-24T10:19:01;103324;;;2.37;92.19
62632;BME280;48703;51.248;-0.546;2023-01-24T10:22:03;103326;;;2.39;91.85
62632;BME280;48703;51.248;-0.546;2023-01-24T10:25:03;103326;;;2.39;91.59
62632;BME280;48703;51.248;-0.546;2023-01-24T10:28:04;103324;;;2.40;91.45
62632;BME280;48703;51.248;-0.546;2023-01-24T10:31:07;103326;;;2.42;91.43
62632;BME280;48703;51.248;-0.546;2023-01-24T10:34:09;103325;;;2.43;90.99
62632;BME280;48703;51.248;-0.546;2023-01-24T10:37:13;103324;;;2.46;91.23
62632;BME280;48703;51.248;-0.546;2023-01-24T10:40:12;103324;;;2.48;90.99
62632;BME280;48703;51.248;-0.546;2023-01-24T10:43:13;103328;;;2.49;90.97
62632;BME280;48703;51.248;-0.546;2023-01-24T10:46:20;103330;;;2.50;90.78
62632;BME280;48703;51.248;-0.546;2023-01-24T10:49:18;103330;;;2.51;90.44
62632;BME280;48703;51.248;-0.546;2023-01-24T10:52:19;103329;;;2.52;89.78
62632;BME280;48703;51.248;-0.546;2023-01-24T10:55:22;103327;;;2.54;90.28
62632;BME280;48703;51.248;-0.546;2023-01-24T10:58:23;103323;;;2.55;90.01
62632;BME280;48703;51.248;-0.546;2023-01-24T11:01:31;103317;;;2.58;90.09
62632;BME280;48703;51.248;-0.546;2023-01-24T11:04:28;103317;;;2.59;90.25
62632;BME280;48703;51.248;-0.546;2023-01-24T11:07:29;103316;;;2.60;90.44
62632;BME280;48703;51.248;-0.546;2023-01-24T11:10:34;103314;;;2.61;90.02
62632;BME280;48703;51.248;-0.546;2023-01-24T11:13:33;103310;;;2.62;89.88
62632;BME280;48703;51.248;-0.546;2023-01-24T11:16:40;103309;;;2.63;89.80
62632;BME280;48703;51.248;-0.546;2023-01-24T11:19:36;103307;;;2.64;90.31
62632;BME280;48703;51.248;-0.546;2023-01-24T11:22:38;103309;;;2.67;90.23
62632;BME280;48703;51.248;-0.546;2023-01-24T11:25:55;103308;;;2.66;89.56
62632;BME280;48703;51.248;-0.546;2023-01-24T11:28:41;103311;;;2.68;89.89
62632;BME280;48703;51.248;-0.546;2023-01-24T11:31:43;103306;;;2.69;89.70
62632;BME280;48703;51.248;-0.546;2023-01-24T11:34:46;103305;;;2.70;89.41
62632;BME280;48703;51.248;-0.546;2023-01-24T11:37:55;103300;;;2.71;88.89
62632;BME280;48703;51.248;-0.546;2023-01-24T11:40:52;103301;;;2.73;88.98
62632;BME280;48703;51.248;-0.546;2023-01-24T11:44:43;103302;;;2.74;88.82
62632;BME280;48703;51.248;-0.546;2023-01-24T11:46:54;103297;;;2.76;88.92
62632;BME280;48703;51.248;-0.546;2023-01-24T11:49:59;103295;;;2.78;88.48
62632;BME280;48703;51.248;-0.546;2023-01-24T11:53:01;103291;;;2.77;87.98
62632;BME280;48703;51.248;-0.546;2023-01-24T11:56:00;103291;;;2.80;87.91
62632;BME280;48703;51.248;-0.546;2023-01-24T11:59:05;103285;;;2.84;88.28
62632;BME280;48703;51.248;-0.546;2023-01-24T12:02:05;103283;;;2.86;87.71
62632;BME280;48703;51.248;-0.546;2023-01-24T12:05:09;103280;;;2.87;87.65
62632;BME280;48703;51.248;-0.546;2023-01-24T12:08:10;103275;;;2.91;87.67
62632;BME280;48703;51.248;-0.546;2023-01-24T12:11:10;103272;;;2.93;88.24
62632;BME280;48703;51.248;-0.546;2023-01-24T12:14:15;103268;;;2.96;88.79
62632;BME280;48703;51.248;-0.546;2023-01-24T12:17:15;103265;;;3.00;88.92
62632;BME280;48703;51.248;-0.546;2023-01-24T12:20:18;103264;;;3.03;88.21
62632;BME280;48703;51.248;-0.546;2023-01-24T12:23:18;103263;;;3.04;88.10
62632;BME280;48703;51.248;-0.546;2023-01-24T12:26:17;103258;;;3.06;88.12
62632;BME280;48703;51.248;-0.546;2023-01-24T12:29:20;103252;;;3.10;88.12
62632;BME280;48703;51.248;-0.546;2023-01-24T12:32:22;103248;;;3.09;87.08
62632;BME280;48703;51.248;-0.546;2023-01-24T12:35:25;103242;;;3.08;86.46
62632;BME280;48703;51.248;-0.546;2023-01-24T12:38:25;103238;;;3.10;87.27
62632;BME280;48703;51.248;-0.546;2023-01-24T12:41:27;103235;;;3.12;86.64
62632;BME280;48703;51.248;-0.546;2023-01-24T12:44:31;103231;;;3.15;86.46
62632;BME280;48703;51.248;-0.546;2023-01-24T12:47:35;103229;;;3.17;86.32
62632;BME280;48703;51.248;-0.546;2023-01-24T12:50:40;103225;;;3.20;86.77
62632;BME280;48703;51.248;-0.546;2023-01-24T12:53:36;103225;;;3.21;85.75
62632;BME280;48703;51.248;-0.546;2023-01-24T12:56:44;103223;;;3.23;86.11
62632;BME280;48703;51.248;-0.546;2023-01-24T12:59:38;103221;;;3.25;85.94
62632;BME280;48703;51.248;-0.546;2023-01-24T13:02:47;103219;;;3.28;85.45
62632;BME280;48703;51.248;-0.546;2023-01-24T13:05:45;103215;;;3.32;86.33
62632;BME280;48703;51.248;-0.546;2023-01-24T13:08:47;103215;;;3.34;86.24
62632;BME280;48703;51.248;-0.546;2023-01-24T13:11:45;103215;;;3.37;86.49
62632;BME280;48703;51.248;-0.546;2023-01-24T13:14:48;103214;;;3.37;85.37
62632;BME280;48703;51.248;-0.546;2023-01-24T13:17:57;103215;;;3.41;86.32
62632;BME280;48703;51.248;-0.546;2023-01-24T13:20:54;103216;;;3.42;86.12
62632;BME280;48703;51.248;-0.546;2023-01-24T13:23:58;103217;;;3.46;85.81
62632;BME280;48703;51.248;-0.546;2023-01-24T13:27:00;103214;;;3.48;85.68
62632;BME280;48703;51.248;-0.546;2023-01-24T13:30:00;103213;;;3.49;84.79
62632;BME280;48703;51.248;-0.546;2023-01-24T13:32:59;103210;;;3.51;85.75
62632;BME280;48703;51.248;-0.546;2023-01-24T13:36:02;103208;;;3.57;84.99
62632;BME280;48703;51.248;-0.546;2023-01-24T13:39:02;103210;;;3.69;85.63
62632;BME280;48703;51.248;-0.546;2023-01-24T13:42:05;103207;;;3.77;84.68
62632;BME280;48703;51.248;-0.546;2023-01-24T13:46:11;103209;;;3.85;84.13
62632;BME280;48703;51.248;-0.546;2023-01-24T13:48:42;103206;;;3.88;83.14
62632;BME280;48703;51.248;-0.546;2023-01-24T13:51:30;103205;;;3.92;82.89
62632;BME280;48703;51.248;-0.546;2023-01-24T13:54:20;103200;;;3.93;84.06
62632;BME280;48703;51.248;-0.546;2023-01-24T13:57:20;103196;;;3.98;82.55
62632;BME280;48703;51.248;-0.546;2023-01-24T14:00:16;103197;;;3.99;83.13
62632;BME280;48703;51.248;-0.546;2023-01-24T14:03:17;103194;;;3.99;83.40
62632;BME280;48703;51.248;-0.546;2023-01-24T14:06:19;103192;;;3.96;83.20
62632;BME280;48703;51.248;-0.546;2023-01-24T14:09:21;103192;;;3.91;83.39
62632;BME280;48703;51.248;-0.546;2023-01-24T14:12:23;103191;;;3.83;83.42
62632;BME280;48703;51.248;-0.546;2023-01-24T14:15:25;103194;;;3.77;83.51
62632;BME280;48703;51.248;-0.546;2023-01-24T14:18:41;103192;;;3.73;83.69
62632;BME280;48703;51.248;-0.546;2023-01-24T14:21:30;103187;;;3.70;84.14
62632;BME280;48703;51.248;-0.546;2023-01-24T14:24:31;103187;;;3.67;83.59
62632;BME280;48703;51.248;-0.546;2023-01-24T14:27:33;103186;;;3.71;84.62
62632;BME280;48703;51.248;-0.546;2023-01-24T14:30:35;103186;;;3.74;82.84
62632;BME280;48703;51.248;-0.546;2023-01-24T14:33:40;103188;;;3.79;82.53
62632;BME280;48703;51.248;-0.546;2023-01-24T14:36:38;103189;;;3.81;81.86
62632;BME280;48703;51.248;-0.546;2023-01-24T14:39:40;103188;;;3.85;82.33
62632;BME280;48703;51.248;-0.546;2023-01-24T14:42:41;103188;;;3.92;83.61
62632;BME280;48703;51.248;-0.546;2023-01-24T14:45:43;103188;;;3.96;82.02
62632;BME280;48703;51.248;-0.546;2023-01-24T14:48:45;103186;;;4.01;83.08
62632;BME280;48703;51.248;-0.546;2023-01-24T14:51:47;103184;;;4.02;81.47
62632;BME280;48703;51.248;-0.546;2023-01-24T14:54:51;103189;;;4.07;82.98
62632;BME280;48703;51.248;-0.546;2023-01-24T14:57:51;103192;;;4.09;82.39
62632;BME280;48703;51.248;-0.546;2023-01-24T15:00:53;103192;;;4.07;82.14
62632;BME280;48703;51.248;-0.546;2023-01-24T15:03:55;103191;;;4.06;82.32
62632;BME280;48703;51.248;-0.546;2023-01-24T15:07:13;103184;;;3.97;81.16
62632;BME280;48703;51.248;-0.546;2023-01-24T15:09:58;103182;;;3.92;82.65
62632;BME280;48703;51.248;-0.546;2023-01-24T15:13:01;103183;;;3.85;82.09
62632;BME280;48703;51.248;-0.546;2023-01-24T15:16:03;103181;;;3.79;82.63
62632;BME280;48703;51.248;-0.546;2023-01-24T15:19:05;103179;;;3.74;82.90
62632;BME280;48703;51.248;-0.546;2023-01-24T15:22:13;103179;;;3.72;82.61
62632;BME280;48703;51.248;-0.546;2023-01-24T15:25:15;103183;;;3.71;82.49
62632;BME280;48703;51.248;-0.546;2023-01-24T15:28:10;103182;;;3.71;82.64
62632;BME280;48703;51.248;-0.546;2023-01-24T15:31:17;103180;;;3.71;82.83
62632;BME280;48703;51.248;-0.546;2023-01-24T15:34:16;103179;;;3.69;83.05
62632;BME280;48703;51.248;-0.546;2023-01-24T15:37:15;103180;;;3.68;83.38
62632;BME280;48703;51.248;-0.546;2023-01-24T15:40:18;103178;;;3.63;83.16
62632;BME280;48703;51.248;-0.546;2023-01-24T15:43:21;103176;;;3.59;83.36
62632;BME280;48703;51.248;-0.546;2023-01-24T15:46:22;103176;;;3.56;83.37
62632;BME280;48703;51.248;-0.546;2023-01-24T15:49:25;103176;;;3.51;83.44
62632;BME280;48703;51.248;-0.546;2023-01-24T15:52:25;103177;;;3.45;84.04
62632;BME280;48703;51.248;-0.546;2023-01-24T15:55:27;103180;;;3.40;83.72
62632;BME280;48703;51.248;-0.546;2023-01-24T15:58:29;103179;;;3.35;84.46
62632;BME280;48703;51.248;-0.546;2023-01-24T16:01:30;103180;;;3.31;84.76
62632;BME280;48703;51.248;-0.546;2023-01-24T16:04:32;103177;;;3.27;84.58
62632;BME280;48703;51.248;-0.546;2023-01-24T16:07:34;103177;;;3.21;84.47
62632;BME280;48703;51.248;-0.546;2023-01-24T16:10:36;103184;;;3.16;85.23
62632;BME280;48703;51.248;-0.546;2023-01-24T16:13:38;103184;;;3.11;85.36
62632;BME280;48703;51.248;-0.546;2023-01-24T16:16:40;103182;;;3.04;85.26
62632;BME280;48703;51.248;-0.546;2023-01-24T16:19:42;103183;;;2.97;85.17
62632;BME280;48703;51.248;-0.546;2023-01-24T16:22:43;103193;;;2.93;85.33
62632;BME280;48703;51.248;-0.546;2023-01-24T16:25:46;103202;;;2.86;85.13
62632;BME280;48703;51.248;-0.546;2023-01-24T16:28:47;103203;;;2.78;86.29